createdAt,value
2019-03-16T00:02:03.326Z,3.33
2019-03-16T00:04:50.239Z,3.30
2019-03-16T00:07:37.172Z,2.10
2019-03-16T00:10:25.498Z,2.13
2019-03-16T00:13:12.055Z,2.47
2019-03-16T00:16:05.342Z,2.23
2019-03-16T00:18:53.897Z,2.60
2019-03-16T00:21:40.975Z,3.17
2019-03-16T00:24:28.135Z,2.23
2019-03-16T00:27:14.598Z,2.93
2019-03-16T00:30:01.321Z,2.70
2019-03-16T00:32:48.326Z,2.33
2019-03-16T00:35:36.870Z,2.50
2019-03-16T00:38:23.738Z,2.57
2019-03-16T00:41:12.442Z,2.23
2019-03-16T00:43:59.194Z,2.13
2019-03-16T00:46:49.781Z,2.70
2019-03-16T00:49:36.622Z,2.57
2019-03-16T00:52:23.601Z,2.43
2019-03-16T00:55:13.045Z,2.90
2019-03-16T00:58:01.800Z,2.40
2019-03-16T01:00:48.309Z,2.70
2019-03-16T01:03:36.258Z,2.47
2019-03-16T01:06:22.730Z,2.63
2019-03-16T01:09:09.310Z,2.37
2019-03-16T01:11:56.030Z,2.00
2019-03-16T01:14:43.356Z,2.67
2019-03-16T01:17:33.471Z,2.57
2019-03-16T01:20:20.794Z,2.43
2019-03-16T01:23:09.815Z,2.60
2019-03-16T01:25:56.933Z,2.97
2019-03-16T01:28:44.525Z,3.37
2019-03-16T01:31:32.122Z,2.70
2019-03-16T01:34:21.122Z,2.40
2019-03-16T01:37:07.587Z,2.47
2019-03-16T01:39:54.719Z,3.20
2019-03-16T01:42:43.666Z,2.80
2019-03-16T01:45:29.982Z,2.20
2019-03-16T01:48:17.751Z,2.73
2019-03-16T01:51:04.082Z,2.87
2019-03-16T01:53:51.126Z,2.60
2019-03-16T01:56:38.350Z,2.60
2019-03-16T01:59:24.957Z,2.70
2019-03-16T02:02:11.418Z,2.87
2019-03-16T02:04:58.382Z,2.60
2019-03-16T02:07:44.907Z,3.63
2019-03-16T02:10:34.438Z,2.77
2019-03-16T02:13:21.509Z,2.80
2019-03-16T02:16:11.175Z,2.67
2019-03-16T02:18:56.941Z,3.00
2019-03-16T02:21:44.786Z,2.97
2019-03-16T02:24:31.514Z,3.20
2019-03-16T02:27:18.058Z,3.57
2019-03-16T02:30:05.472Z,3.63
2019-03-16T02:32:52.177Z,2.53
2019-03-16T02:35:38.797Z,4.10
2019-03-16T02:38:26.065Z,3.87
2019-03-16T02:41:12.833Z,3.70
2019-03-16T02:43:59.585Z,3.97
2019-03-16T02:46:46.477Z,3.43
2019-03-16T02:49:33.372Z,3.87
2019-03-16T02:52:20.549Z,4.20
2019-03-16T02:55:07.619Z,3.27
2019-03-16T02:57:54.994Z,3.30
2019-03-16T03:00:41.718Z,3.83
2019-03-16T03:03:30.173Z,3.60
2019-03-16T03:06:17.196Z,3.17
2019-03-16T03:09:07.033Z,2.83
2019-03-16T03:11:53.991Z,3.43
2019-03-16T03:14:40.940Z,3.40
2019-03-16T03:17:27.787Z,3.30
2019-03-16T03:20:14.208Z,3.03
2019-03-16T03:23:01.174Z,3.87
2019-03-16T03:25:47.712Z,3.97
2019-03-16T03:28:34.295Z,3.67
2019-03-16T03:31:21.038Z,3.97
2019-03-16T03:34:07.807Z,4.00
2019-03-16T03:36:54.505Z,3.97
2019-03-16T03:39:41.609Z,4.23
2019-03-16T03:42:28.096Z,4.20
2019-03-16T03:45:15.113Z,4.40
2019-03-16T03:48:02.252Z,4.27
2019-03-16T03:50:51.175Z,5.13
2019-03-16T03:53:41.073Z,4.30
2019-03-16T03:56:27.738Z,4.10
2019-03-16T03:59:14.731Z,4.13
2019-03-16T04:02:02.303Z,4.53
2019-03-16T04:04:49.175Z,3.80
2019-03-16T04:07:35.874Z,4.13
2019-03-16T04:10:22.854Z,3.63
2019-03-16T04:13:09.755Z,3.17
2019-03-16T04:15:57.554Z,4.13
2019-03-16T04:18:44.963Z,3.03
2019-03-16T04:21:32.267Z,2.67
2019-03-16T04:24:18.920Z,2.80
2019-03-16T04:27:16.022Z,2.97
2019-03-16T04:29:54.117Z,3.73
2019-03-16T04:32:40.802Z,2.53
2019-03-16T04:35:28.132Z,2.57
2019-03-16T04:38:15.296Z,2.57
2019-03-16T04:41:02.211Z,2.27
2019-03-16T04:43:49.132Z,2.20
2019-03-16T04:46:36.270Z,2.07
2019-03-16T04:49:22.595Z,2.07
2019-03-16T04:52:09.596Z,2.00
2019-03-16T04:54:56.147Z,1.70
2019-03-16T04:57:43.054Z,1.90
2019-03-16T05:00:30.578Z,1.97
2019-03-16T05:03:18.356Z,2.17
2019-03-16T05:06:04.850Z,2.10
2019-03-16T05:08:52.183Z,1.77
2019-03-16T05:11:38.607Z,2.07
2019-03-16T05:14:25.452Z,1.90
2019-03-16T05:17:12.417Z,1.70
2019-03-16T05:19:59.239Z,1.87
2019-03-16T05:22:45.686Z,1.93
2019-03-16T05:25:32.549Z,1.87
2019-03-16T05:28:19.279Z,1.83
2019-03-16T05:31:06.404Z,2.17
2019-03-16T05:33:53.329Z,2.20
2019-03-16T05:36:40.271Z,2.37
2019-03-16T05:39:34.748Z,2.43
2019-03-16T05:42:21.219Z,2.40
2019-03-16T05:45:08.245Z,2.30
2019-03-16T05:47:55.435Z,1.90
2019-03-16T05:50:42.047Z,2.27
2019-03-16T05:53:28.830Z,2.13
2019-03-16T05:56:15.586Z,1.90
2019-03-16T05:59:05.411Z,2.10
2019-03-16T06:01:52.503Z,2.40
2019-03-16T06:04:39.667Z,2.77
2019-03-16T06:07:26.356Z,2.13
2019-03-16T06:10:17.462Z,2.33
2019-03-16T06:13:05.640Z,3.00
2019-03-16T06:15:53.499Z,2.93
2019-03-16T06:18:40.365Z,2.80
2019-03-16T06:21:26.800Z,2.70
2019-03-16T06:24:12.897Z,2.77
2019-03-16T06:27:00.337Z,2.50
2019-03-16T06:29:46.748Z,2.53
2019-03-16T06:32:33.760Z,2.40
2019-03-16T06:35:24.931Z,2.90
2019-03-16T06:38:10.086Z,3.40
2019-03-16T06:40:57.303Z,3.07
2019-03-16T06:43:48.440Z,3.33
2019-03-16T06:46:35.000Z,3.27
2019-03-16T06:49:21.744Z,3.00
2019-03-16T06:52:08.124Z,3.17
2019-03-16T06:54:54.908Z,3.17
2019-03-16T06:57:41.725Z,3.00
2019-03-16T07:00:28.460Z,4.27
2019-03-16T07:03:14.892Z,4.50
2019-03-16T07:06:03.706Z,5.50
2019-03-16T07:08:50.088Z,5.63
2019-03-16T07:11:36.949Z,6.80
2019-03-16T07:14:23.936Z,7.37
2019-03-16T07:17:11.148Z,7.90
2019-03-16T07:19:58.005Z,9.40
2019-03-16T07:22:47.281Z,10.33
2019-03-16T07:25:39.736Z,9.37
2019-03-16T07:28:26.804Z,10.33
2019-03-16T07:31:13.924Z,12.33
2019-03-16T07:34:01.027Z,12.83
2019-03-16T07:36:47.381Z,13.60
2019-03-16T07:39:37.440Z,15.03
2019-03-16T07:42:24.285Z,17.73
2019-03-16T07:45:11.056Z,16.37
2019-03-16T07:47:57.936Z,15.40
2019-03-16T07:50:44.641Z,17.60
2019-03-16T07:53:31.933Z,16.03
2019-03-16T07:56:19.084Z,17.17
2019-03-16T07:59:06.524Z,18.87
2019-03-16T08:01:53.160Z,19.33
2019-03-16T08:04:43.297Z,18.80
2019-03-16T08:07:32.878Z,16.53
2019-03-16T08:10:19.653Z,16.17
2019-03-16T08:13:06.473Z,16.60
2019-03-16T08:15:53.341Z,15.87
2019-03-16T08:18:39.840Z,16.57
2019-03-16T08:21:31.311Z,12.53
2019-03-16T08:24:17.975Z,12.33
2019-03-16T08:27:08.141Z,12.93
2019-03-16T08:29:55.766Z,12.73
2019-03-16T08:32:42.289Z,13.87
2019-03-16T08:35:29.169Z,13.23
2019-03-16T08:38:16.446Z,13.50
2019-03-16T08:41:03.688Z,11.37
2019-03-16T08:43:52.450Z,14.07
2019-03-16T08:46:39.613Z,12.23
2019-03-16T08:49:25.977Z,11.97
2019-03-16T08:52:15.684Z,11.60
2019-03-16T08:55:04.323Z,10.97
2019-03-16T08:58:05.380Z,11.20
2019-03-16T09:00:42.521Z,12.00
2019-03-16T09:03:29.448Z,12.70
2019-03-16T09:06:16.369Z,12.70
2019-03-16T09:09:06.585Z,15.73
2019-03-16T09:11:54.951Z,15.43
2019-03-16T09:14:42.425Z,16.27
2019-03-16T09:17:31.941Z,16.77
2019-03-16T09:20:18.793Z,16.67
2019-03-16T09:23:06.287Z,16.30
2019-03-16T09:25:55.332Z,16.03
2019-03-16T09:28:45.656Z,16.33
2019-03-16T09:31:35.454Z,16.00
2019-03-16T09:34:25.607Z,14.57
2019-03-16T09:37:12.460Z,15.40
2019-03-16T09:39:59.388Z,14.73
2019-03-16T09:42:46.032Z,13.43
2019-03-16T09:45:32.681Z,13.97
2019-03-16T09:48:20.618Z,12.40
2019-03-16T09:51:07.003Z,11.83
2019-03-16T09:53:53.375Z,9.63
2019-03-16T09:56:41.659Z,9.27
2019-03-16T09:59:28.568Z,8.70
2019-03-16T10:02:15.472Z,8.57
2019-03-16T10:05:04.574Z,8.33
2019-03-16T10:07:53.276Z,8.40
2019-03-16T10:10:44.287Z,8.27
2019-03-16T10:13:30.796Z,7.73
2019-03-16T10:16:17.401Z,7.83
2019-03-16T10:19:04.214Z,8.13
2019-03-16T10:21:52.839Z,8.03
2019-03-16T10:24:41.988Z,8.03
2019-03-16T10:27:30.422Z,7.63
2019-03-16T10:30:16.747Z,8.03
2019-03-16T10:33:06.386Z,7.57
2019-03-16T10:35:53.448Z,7.50
2019-03-16T10:38:40.358Z,8.20
2019-03-16T10:41:28.429Z,7.53
2019-03-16T10:44:15.235Z,9.10
2019-03-16T10:47:01.920Z,7.53
2019-03-16T10:49:48.815Z,7.07
2019-03-16T10:52:36.397Z,6.30
2019-03-16T10:55:22.736Z,6.90
2019-03-16T10:58:09.457Z,5.77
2019-03-16T11:00:59.352Z,5.67
2019-03-16T11:03:46.405Z,5.70
2019-03-16T11:06:32.860Z,5.73
2019-03-16T11:09:19.681Z,5.47
2019-03-16T11:12:07.799Z,5.93
2019-03-16T11:14:54.748Z,4.93
2019-03-16T11:17:41.850Z,5.50
2019-03-16T11:20:28.301Z,5.93
2019-03-16T11:23:15.219Z,4.77
2019-03-16T11:26:03.677Z,5.60
2019-03-16T11:28:50.376Z,6.53
2019-03-16T11:31:37.775Z,6.00
2019-03-16T11:34:29.035Z,6.07
2019-03-16T11:37:15.308Z,6.00
2019-03-16T11:40:02.062Z,5.47
2019-03-16T11:42:49.144Z,5.67
2019-03-16T11:45:37.717Z,5.50
2019-03-16T11:48:24.318Z,4.97
2019-03-16T11:51:11.670Z,5.00
2019-03-16T11:53:58.401Z,4.73
2019-03-16T11:56:45.020Z,4.67
2019-03-16T11:59:31.920Z,4.80
2019-03-16T12:02:21.377Z,4.70
2019-03-16T12:05:08.347Z,4.73
2019-03-16T12:07:57.073Z,4.63
2019-03-16T12:10:43.697Z,4.47
2019-03-16T12:13:31.673Z,3.90
2019-03-16T12:16:18.489Z,5.17
2019-03-16T12:19:04.999Z,3.80
2019-03-16T12:21:51.513Z,4.07
2019-03-16T12:24:41.479Z,4.80
2019-03-16T12:27:30.401Z,4.43
2019-03-16T12:30:16.988Z,4.03
2019-03-16T12:33:04.020Z,3.60
2019-03-16T12:35:50.649Z,3.80
2019-03-16T12:38:40.344Z,4.10
2019-03-16T12:41:26.950Z,4.00
2019-03-16T12:44:14.487Z,4.10
2019-03-16T12:47:01.064Z,4.63
2019-03-16T12:49:47.945Z,5.03
2019-03-16T12:52:38.144Z,4.80
2019-03-16T12:55:25.205Z,4.57
2019-03-16T12:58:16.369Z,4.63
2019-03-16T13:01:03.211Z,4.53
2019-03-16T13:03:58.749Z,5.03
2019-03-16T13:06:49.028Z,4.10
2019-03-16T13:09:36.398Z,3.77
2019-03-16T13:12:26.398Z,2.80
2019-03-16T13:15:17.859Z,2.53
2019-03-16T13:18:04.783Z,2.67
2019-03-16T13:20:51.985Z,2.70
2019-03-16T13:23:38.911Z,3.37
2019-03-16T13:26:25.982Z,3.67
2019-03-16T13:29:13.210Z,4.30
2019-03-16T13:32:02.574Z,4.27
2019-03-16T13:34:49.209Z,4.93
2019-03-16T13:37:38.911Z,4.50
2019-03-16T13:40:25.588Z,4.43
2019-03-16T13:43:11.902Z,4.10
2019-03-16T13:46:01.046Z,3.70
2019-03-16T13:48:47.880Z,3.43
2019-03-16T13:51:34.383Z,3.63
2019-03-16T13:54:24.293Z,3.80
2019-03-16T13:57:13.015Z,4.10
2019-03-16T14:00:11.762Z,3.83
2019-03-16T14:02:55.138Z,4.23
2019-03-16T14:05:42.301Z,4.00
2019-03-16T14:08:29.479Z,3.40
2019-03-16T14:11:18.154Z,3.20
2019-03-16T14:14:04.745Z,4.30
2019-03-16T14:16:51.962Z,4.53
2019-03-16T14:19:38.545Z,4.00
2019-03-16T14:22:26.879Z,4.77
2019-03-16T14:25:13.623Z,4.20
2019-03-16T14:28:04.463Z,4.57
2019-03-16T14:30:53.095Z,3.83
2019-03-16T14:33:48.812Z,3.83
2019-03-16T14:36:36.246Z,3.67
2019-03-16T14:39:23.361Z,3.13
2019-03-16T14:42:11.415Z,3.00
2019-03-16T14:45:01.961Z,3.20
2019-03-16T14:47:50.153Z,3.13
2019-03-16T14:50:41.044Z,3.20
2019-03-16T14:53:28.405Z,3.30
2019-03-16T14:56:16.228Z,3.37
2019-03-16T14:59:13.672Z,3.93
2019-03-16T15:02:20.495Z,2.87
2019-03-16T15:05:07.983Z,2.70
2019-03-16T15:07:57.029Z,3.40
2019-03-16T15:10:44.686Z,3.00
2019-03-16T15:13:34.221Z,2.53
2019-03-16T15:16:21.374Z,2.80
2019-03-16T15:19:08.981Z,2.30
2019-03-16T15:21:55.194Z,2.43
2019-03-16T15:24:42.584Z,2.43
2019-03-16T15:27:33.746Z,2.23
2019-03-16T15:30:20.949Z,2.27
2019-03-16T15:33:07.976Z,2.10
2019-03-16T15:35:54.765Z,2.33
2019-03-16T15:38:44.600Z,1.90
2019-03-16T15:41:31.778Z,2.03
2019-03-16T15:44:18.410Z,1.90
2019-03-16T15:47:04.737Z,2.20
2019-03-16T15:49:54.298Z,2.70
2019-03-16T15:52:42.873Z,2.37
2019-03-16T15:55:29.759Z,2.50
2019-03-16T15:58:16.682Z,2.37
2019-03-16T16:01:05.638Z,2.93
2019-03-16T16:03:52.394Z,2.57
2019-03-16T16:06:38.815Z,2.50
2019-03-16T16:09:27.387Z,2.23
2019-03-16T16:12:16.605Z,2.33
2019-03-16T16:15:09.007Z,2.30
2019-03-16T16:17:55.690Z,2.30
2019-03-16T16:20:46.046Z,2.57
2019-03-16T16:23:35.886Z,2.20
2019-03-16T16:26:26.526Z,1.97
2019-03-16T16:29:16.291Z,2.07
2019-03-16T16:32:06.207Z,2.30
2019-03-16T16:34:52.846Z,2.20
2019-03-16T16:37:40.102Z,2.50
2019-03-16T16:40:26.507Z,1.93
2019-03-16T16:43:14.647Z,2.20
2019-03-16T16:46:01.735Z,1.70
2019-03-16T16:48:48.154Z,1.90
2019-03-16T16:51:35.211Z,1.90
2019-03-16T16:54:24.447Z,2.43
2019-03-16T16:57:11.131Z,1.80
2019-03-16T17:00:01.774Z,1.97
2019-03-16T17:02:48.569Z,2.10
2019-03-16T17:05:35.146Z,1.90
2019-03-16T17:08:23.338Z,2.23
2019-03-16T17:11:11.518Z,1.63
2019-03-16T17:14:01.633Z,2.47
2019-03-16T17:16:50.283Z,2.20
2019-03-16T17:19:37.419Z,1.67
2019-03-16T17:22:24.634Z,1.80
2019-03-16T17:25:14.013Z,1.70
2019-03-16T17:28:03.835Z,2.10
2019-03-16T17:30:50.669Z,1.90
2019-03-16T17:33:38.441Z,1.80
2019-03-16T17:36:27.342Z,1.60
2019-03-16T17:39:16.916Z,2.13
2019-03-16T17:42:04.010Z,2.00
2019-03-16T17:44:53.415Z,1.60
2019-03-16T17:47:44.323Z,2.03
2019-03-16T17:50:30.996Z,2.10
2019-03-16T17:53:20.335Z,2.10
2019-03-16T17:56:07.433Z,2.80
2019-03-16T17:58:54.041Z,1.60
2019-03-16T18:01:40.758Z,2.00
2019-03-16T18:04:43.690Z,1.97
2019-03-16T18:07:41.598Z,2.20
2019-03-16T18:10:28.733Z,2.20
2019-03-16T18:13:17.193Z,2.53
2019-03-16T18:16:03.830Z,2.00
2019-03-16T18:18:50.219Z,2.63
2019-03-16T18:21:37.302Z,2.80
2019-03-16T18:24:24.002Z,2.10
2019-03-16T18:27:10.729Z,2.43
2019-03-16T18:30:00.534Z,1.90
2019-03-16T18:32:58.625Z,2.57
2019-03-16T18:35:50.318Z,1.90
2019-03-16T18:38:37.166Z,2.30
2019-03-16T18:41:25.046Z,2.00
2019-03-16T18:44:11.823Z,2.40
2019-03-16T18:47:01.954Z,2.20
2019-03-16T18:49:53.791Z,2.17
2019-03-16T18:52:44.244Z,1.87
2019-03-16T18:55:33.353Z,1.90
2019-03-16T18:58:36.228Z,1.97
2019-03-16T19:01:20.713Z,2.03
2019-03-16T19:04:10.397Z,2.43
2019-03-16T19:06:59.300Z,2.40
2019-03-16T19:09:47.834Z,2.80
2019-03-16T19:12:41.723Z,2.00
2019-03-16T19:15:28.230Z,3.03
2019-03-16T19:18:14.956Z,2.77
2019-03-16T19:21:07.107Z,3.37
2019-03-16T19:23:56.679Z,5.00
2019-03-16T19:26:47.833Z,4.43
2019-03-16T19:29:34.874Z,2.73
2019-03-16T19:32:33.098Z,3.07
2019-03-16T19:35:09.923Z,3.33
2019-03-16T19:37:56.860Z,3.10
2019-03-16T19:40:43.543Z,3.53
2019-03-16T19:43:33.211Z,3.13
2019-03-16T19:46:23.026Z,3.37
2019-03-16T19:49:09.533Z,3.43
2019-03-16T19:51:56.258Z,3.00
2019-03-16T19:54:43.612Z,3.63
2019-03-16T19:57:30.145Z,3.20
2019-03-16T20:00:17.040Z,3.60
2019-03-16T20:03:04.063Z,3.53
2019-03-16T20:05:50.856Z,3.27
2019-03-16T20:08:40.123Z,3.87
2019-03-16T20:11:26.774Z,3.30
2019-03-16T20:14:13.427Z,3.70
2019-03-16T20:17:01.965Z,3.70
2019-03-16T20:19:51.372Z,4.17
2019-03-16T20:22:39.357Z,3.77
2019-03-16T20:25:26.543Z,3.70
2019-03-16T20:28:13.765Z,3.50
2019-03-16T20:31:06.453Z,3.67
2019-03-16T20:33:53.702Z,3.40
2019-03-16T20:36:42.869Z,3.20
2019-03-16T20:39:33.582Z,3.90
2019-03-16T20:42:21.290Z,3.93
2019-03-16T20:45:14.021Z,3.50
2019-03-16T20:48:02.747Z,3.83
2019-03-16T20:50:49.501Z,3.50
2019-03-16T20:53:36.570Z,4.00
2019-03-16T20:56:23.290Z,3.67
2019-03-16T20:59:09.796Z,3.67
2019-03-16T21:01:59.029Z,3.90
2019-03-16T21:04:45.792Z,4.33
2019-03-16T21:07:32.612Z,3.70
2019-03-16T21:10:20.466Z,3.53
2019-03-16T21:13:07.840Z,3.93
2019-03-16T21:15:54.872Z,3.60
2019-03-16T21:18:42.715Z,4.30
2019-03-16T21:21:29.364Z,3.77
2019-03-16T21:24:16.488Z,4.37
2019-03-16T21:27:04.632Z,4.27
2019-03-16T21:29:54.201Z,3.37
2019-03-16T21:32:43.848Z,3.33
2019-03-16T21:35:30.121Z,3.63
2019-03-16T21:38:16.820Z,3.67
2019-03-16T21:41:06.011Z,3.60
2019-03-16T21:43:52.570Z,3.30
2019-03-16T21:46:43.765Z,4.93
2019-03-16T21:49:29.873Z,4.23
2019-03-16T21:52:17.798Z,3.43
2019-03-16T21:55:09.682Z,3.47
2019-03-16T21:57:59.431Z,3.47
2019-03-16T22:00:48.396Z,3.47
2019-03-16T22:03:42.126Z,3.40
2019-03-16T22:06:23.659Z,3.57
2019-03-16T22:09:13.602Z,3.77
2019-03-16T22:12:00.120Z,3.23
2019-03-16T22:14:48.960Z,3.57
2019-03-16T22:17:36.676Z,3.60
2019-03-16T22:20:23.188Z,3.43
2019-03-16T22:23:09.703Z,3.73
2019-03-16T22:25:56.884Z,3.80
2019-03-16T22:28:46.256Z,4.70
2019-03-16T22:31:33.300Z,4.60
2019-03-16T22:34:20.436Z,3.87
2019-03-16T22:37:07.275Z,3.77
2019-03-16T22:39:56.637Z,4.10
2019-03-16T22:42:43.459Z,3.97
2019-03-16T22:45:32.845Z,4.33
2019-03-16T22:48:21.490Z,4.40
2019-03-16T22:51:08.233Z,3.63
2019-03-16T22:53:56.490Z,4.13
2019-03-16T22:56:43.179Z,3.50
2019-03-16T22:59:30.498Z,3.37
2019-03-16T23:02:20.047Z,3.07
2019-03-16T23:05:08.815Z,3.20
2019-03-16T23:07:56.523Z,3.77
2019-03-16T23:10:45.896Z,2.87
2019-03-16T23:13:32.568Z,3.73
2019-03-16T23:16:19.344Z,3.30
2019-03-16T23:19:05.969Z,3.03
2019-03-16T23:21:54.060Z,2.80
2019-03-16T23:24:46.310Z,3.30
2019-03-16T23:27:33.008Z,3.10
2019-03-16T23:30:23.338Z,3.23
2019-03-16T23:33:10.466Z,2.90
2019-03-16T23:36:00.175Z,3.33
2019-03-16T23:38:50.359Z,3.00
2019-03-16T23:41:36.915Z,3.80
2019-03-16T23:44:23.623Z,3.23
2019-03-16T23:47:11.586Z,2.73
2019-03-16T23:49:58.136Z,2.50
2019-03-16T23:52:46.882Z,2.90
2019-03-16T23:55:35.181Z,2.70
2019-03-16T23:58:23.533Z,2.77
